sensor_id;sensor_type;location;lat;lon;timestamp;noise_LAeq;noise_LA_min;noise_LA_max;noise_LA01;noise_LA95
43938;Laerm;71382;47.750;10.226;2024-03-17T00:00:55;55.95;55.37;56.61;;
43938;Laerm;71382;47.750;10.226;2024-03-17T00:03:21;55.98;55.27;56.82;;
43938;Laerm;71382;47.750;10.226;2024-03-17T00:05:47;56.01;55.34;57.02;;
43938;Laerm;71382;47.750;10.226;2024-03-17T00:08:13;55.94;55.42;56.59;;
43938;Laerm;71382;47.750;10.226;2024-03-17T00:10:40;55.96;55.39;56.79;;
43938;Laerm;71382;47.750;10.226;2024-03-17T00:13:05;55.94;55.32;56.58;;
43938;Laerm;71382;47.750;10.226;2024-03-17T00:15:31;55.94;55.38;56.49;;
43938;Laerm;71382;47.750;10.226;2024-03-17T00:17:57;55.97;55.35;56.95;;
43938;Laerm;71382;47.750;10.226;2024-03-17T00:20:23;55.95;55.46;56.57;;
43938;Laerm;71382;47.750;10.226;2024-03-17T00:22:50;55.94;55.30;56.55;;
43938;Laerm;71382;47.750;10.226;2024-03-17T00:25:18;55.95;55.33;56.63;;
43938;Laerm;71382;47.750;10.226;2024-03-17T00:27:44;56.02;55.37;56.97;;
43938;Laerm;71382;47.750;10.226;2024-03-17T00:30:10;55.98;55.41;56.62;;
43938;Laerm;71382;47.750;10.226;2024-03-17T00:32:38;55.98;55.40;56.59;;
43938;Laerm;71382;47.750;10.226;2024-03-17T00:35:04;55.99;55.34;56.59;;
43938;Laerm;71382;47.750;10.226;2024-03-17T00:37:30;55.99;55.38;56.59;;
43938;Laerm;71382;47.750;10.226;2024-03-17T00:39:55;55.95;55.34;56.59;;
43938;Laerm;71382;47.750;10.226;2024-03-17T00:42:21;55.97;55.34;57.32;;
43938;Laerm;71382;47.750;10.226;2024-03-17T00:44:47;56.00;55.46;56.98;;
43938;Laerm;71382;47.750;10.226;2024-03-17T00:47:13;55.98;55.38;57.03;;
43938;Laerm;71382;47.750;10.226;2024-03-17T00:49:38;55.95;55.47;56.60;;
43938;Laerm;71382;47.750;10.226;2024-03-17T00:52:04;55.95;55.28;56.72;;
43938;Laerm;71382;47.750;10.226;2024-03-17T00:54:29;55.93;55.28;56.56;;
43938;Laerm;71382;47.750;10.226;2024-03-17T00:56:55;55.92;55.33;56.51;;
43938;Laerm;71382;47.750;10.226;2024-03-17T00:59:21;55.95;55.38;56.78;;
43938;Laerm;71382;47.750;10.226;2024-03-17T01:01:47;55.95;55.28;56.70;;
43938;Laerm;71382;47.750;10.226;2024-03-17T01:04:12;55.92;55.29;56.46;;
43938;Laerm;71382;47.750;10.226;2024-03-17T01:06:38;55.95;55.43;56.63;;
43938;Laerm;71382;47.750;10.226;2024-03-17T01:09:06;55.95;55.34;57.06;;
43938;Laerm;71382;47.750;10.226;2024-03-17T01:11:32;55.97;55.33;57.14;;
43938;Laerm;71382;47.750;10.226;2024-03-17T01:13:57;55.90;55.24;56.57;;
43938;Laerm;71382;47.750;10.226;2024-03-17T01:16:23;55.92;55.34;56.71;;
43938;Laerm;71382;47.750;10.226;2024-03-17T01:18:48;55.97;55.41;58.03;;
43938;Laerm;71382;47.750;10.226;2024-03-17T01:21:15;55.96;55.29;56.73;;
43938;Laerm;71382;47.750;10.226;2024-03-17T01:23:40;55.89;55.30;56.38;;
43938;Laerm;71382;47.750;10.226;2024-03-17T01:26:06;55.90;55.37;56.51;;
43938;Laerm;71382;47.750;10.226;2024-03-17T01:28:31;55.92;55.42;56.59;;
43938;Laerm;71382;47.750;10.226;2024-03-17T01:30:57;55.91;55.23;56.59;;
43938;Laerm;71382;47.750;10.226;2024-03-17T01:33:23;55.91;55.37;56.69;;
43938;Laerm;71382;47.750;10.226;2024-03-17T01:35:49;55.96;55.33;57.32;;
43938;Laerm;71382;47.750;10.226;2024-03-17T01:38:14;56.01;55.25;59.79;;
43938;Laerm;71382;47.750;10.226;2024-03-17T01:40:40;55.88;55.35;56.62;;
43938;Laerm;71382;47.750;10.226;2024-03-17T01:43:09;55.91;55.28;56.69;;
43938;Laerm;71382;47.750;10.226;2024-03-17T01:45:35;55.86;55.32;56.46;;
43938;Laerm;71382;47.750;10.226;2024-03-17T01:48:01;55.85;55.30;56.35;;
43938;Laerm;71382;47.750;10.226;2024-03-17T01:50:34;55.90;55.32;57.52;;
43938;Laerm;71382;47.750;10.226;2024-03-17T01:53:02;55.86;55.35;56.40;;
43938;Laerm;71382;47.750;10.226;2024-03-17T01:55:29;55.87;55.32;56.51;;
43938;Laerm;71382;47.750;10.226;2024-03-17T01:57:55;55.89;55.32;56.75;;
43938;Laerm;71382;47.750;10.226;2024-03-17T02:00:21;55.86;55.28;56.48;;
43938;Laerm;71382;47.750;10.226;2024-03-17T02:02:48;55.83;55.17;56.42;;
43938;Laerm;71382;47.750;10.226;2024-03-17T02:05:14;55.82;55.33;56.41;;
43938;Laerm;71382;47.750;10.226;2024-03-17T02:07:39;55.86;55.25;57.20;;
43938;Laerm;71382;47.750;10.226;2024-03-17T02:10:05;55.82;55.35;56.50;;
43938;Laerm;71382;47.750;10.226;2024-03-17T02:12:33;55.82;55.25;56.38;;
43938;Laerm;71382;47.750;10.226;2024-03-17T02:15:00;55.83;55.26;56.38;;
43938;Laerm;71382;47.750;10.226;2024-03-17T02:17:25;55.83;55.29;56.36;;
43938;Laerm;71382;47.750;10.226;2024-03-17T02:19:52;55.83;55.23;56.41;;
43938;Laerm;71382;47.750;10.226;2024-03-17T02:22:18;55.82;55.15;56.36;;
43938;Laerm;71382;47.750;10.226;2024-03-17T02:24:44;55.81;55.30;56.67;;
43938;Laerm;71382;47.750;10.226;2024-03-17T02:27:09;55.82;55.33;56.43;;
43938;Laerm;71382;47.750;10.226;2024-03-17T02:29:35;55.82;55.27;56.38;;
43938;Laerm;71382;47.750;10.226;2024-03-17T02:32:02;55.89;55.31;56.84;;
43938;Laerm;71382;47.750;10.226;2024-03-17T02:34:35;55.86;55.28;56.39;;
43938;Laerm;71382;47.750;10.226;2024-03-17T02:37:01;55.86;55.27;56.49;;
43938;Laerm;71382;47.750;10.226;2024-03-17T02:39:28;55.86;55.16;56.46;;
43938;Laerm;71382;47.750;10.226;2024-03-17T02:42:03;56.15;55.23;61.73;;
43938;Laerm;71382;47.750;10.226;2024-03-17T02:44:30;55.91;55.39;57.07;;
43938;Laerm;71382;47.750;10.226;2024-03-17T02:46:59;55.86;55.26;56.53;;
43938;Laerm;71382;47.750;10.226;2024-03-17T02:49:25;55.83;55.17;56.45;;
43938;Laerm;71382;47.750;10.226;2024-03-17T02:51:53;55.84;55.25;56.39;;
43938;Laerm;71382;47.750;10.226;2024-03-17T02:54:20;55.89;55.34;56.50;;
43938;Laerm;71382;47.750;10.226;2024-03-17T02:56:45;55.95;55.40;56.51;;
43938;Laerm;71382;47.750;10.226;2024-03-17T02:59:12;56.03;55.41;56.63;;
43938;Laerm;71382;47.750;10.226;2024-03-17T03:01:37;56.18;55.61;57.30;;
43938;Laerm;71382;47.750;10.226;2024-03-17T03:04:03;56.10;55.46;56.70;;
43938;Laerm;71382;47.750;10.226;2024-03-17T03:06:29;56.08;55.50;56.68;;
43938;Laerm;71382;47.750;10.226;2024-03-17T03:08:54;56.23;55.53;56.91;;
43938;Laerm;71382;47.750;10.226;2024-03-17T03:11:20;56.24;55.66;56.81;;
43938;Laerm;71382;47.750;10.226;2024-03-17T03:13:45;56.20;55.62;56.89;;
43938;Laerm;71382;47.750;10.226;2024-03-17T03:16:12;56.21;55.57;56.89;;
43938;Laerm;71382;47.750;10.226;2024-03-17T03:18:39;56.23;55.59;56.86;;
43938;Laerm;71382;47.750;10.226;2024-03-17T03:21:05;56.18;55.57;56.81;;
43938;Laerm;71382;47.750;10.226;2024-03-17T03:23:31;56.17;55.55;56.83;;
43938;Laerm;71382;47.750;10.226;2024-03-17T03:25:58;56.16;55.55;56.70;;
43938;Laerm;71382;47.750;10.226;2024-03-17T03:28:24;56.19;55.49;57.80;;
43938;Laerm;71382;47.750;10.226;2024-03-17T03:30:49;56.13;55.39;56.69;;
43938;Laerm;71382;47.750;10.226;2024-03-17T03:33:15;56.11;55.39;56.81;;
43938;Laerm;71382;47.750;10.226;2024-03-17T03:35:41;56.09;55.52;56.74;;
43938;Laerm;71382;47.750;10.226;2024-03-17T03:38:06;56.08;55.52;56.73;;
43938;Laerm;71382;47.750;10.226;2024-03-17T03:40:33;56.10;55.51;56.68;;
43938;Laerm;71382;47.750;10.226;2024-03-17T03:42:59;56.18;55.65;56.76;;
43938;Laerm;71382;47.750;10.226;2024-03-17T03:45:25;56.19;55.62;56.80;;
43938;Laerm;71382;47.750;10.226;2024-03-17T03:47:51;56.22;55.57;56.71;;
43938;Laerm;71382;47.750;10.226;2024-03-17T03:50:19;56.21;55.61;56.82;;
43938;Laerm;71382;47.750;10.226;2024-03-17T03:52:45;56.10;55.51;56.70;;
43938;Laerm;71382;47.750;10.226;2024-03-17T03:55:11;56.24;55.54;56.81;;
43938;Laerm;71382;47.750;10.226;2024-03-17T03:57:40;56.10;55.49;56.69;;
43938;Laerm;71382;47.750;10.226;2024-03-17T04:00:06;56.06;55.46;56.61;;
43938;Laerm;71382;47.750;10.226;2024-03-17T04:02:41;56.02;55.43;56.53;;
43938;Laerm;71382;47.750;10.226;2024-03-17T04:05:07;55.92;55.29;56.46;;
43938;Laerm;71382;47.750;10.226;2024-03-17T04:07:33;55.92;55.23;56.64;;
43938;Laerm;71382;47.750;10.226;2024-03-17T04:09:59;55.91;55.38;56.45;;
43938;Laerm;71382;47.750;10.226;2024-03-17T04:12:25;55.90;55.19;56.40;;
43938;Laerm;71382;47.750;10.226;2024-03-17T04:14:51;55.89;55.26;56.58;;
43938;Laerm;71382;47.750;10.226;2024-03-17T04:17:21;55.88;55.40;56.43;;
43938;Laerm;71382;47.750;10.226;2024-03-17T04:19:48;55.86;55.28;56.31;;
43938;Laerm;71382;47.750;10.226;2024-03-17T04:22:17;55.85;55.38;56.42;;
43938;Laerm;71382;47.750;10.226;2024-03-17T04:24:43;55.84;55.18;56.44;;
43938;Laerm;71382;47.750;10.226;2024-03-17T04:27:09;55.81;55.29;56.43;;
43938;Laerm;71382;47.750;10.226;2024-03-17T04:29:34;55.82;53.86;58.56;;
43938;Laerm;71382;47.750;10.226;2024-03-17T04:32:00;55.93;55.38;56.47;;
43938;Laerm;71382;47.750;10.226;2024-03-17T04:34:27;55.95;55.28;57.47;;
43938;Laerm;71382;47.750;10.226;2024-03-17T04:36:52;55.78;53.75;56.47;;
43938;Laerm;71382;47.750;10.226;2024-03-17T04:39:19;53.89;51.92;58.76;;
43938;Laerm;71382;47.750;10.226;2024-03-17T04:41:48;53.38;52.32;59.42;;
43938;Laerm;71382;47.750;10.226;2024-03-17T04:44:14;52.91;52.09;55.55;;
43938;Laerm;71382;47.750;10.226;2024-03-17T04:46:40;52.72;52.06;54.42;;
43938;Laerm;71382;47.750;10.226;2024-03-17T04:49:05;53.38;51.88;58.54;;
43938;Laerm;71382;47.750;10.226;2024-03-17T04:51:31;52.97;52.26;53.67;;
43938;Laerm;71382;47.750;10.226;2024-03-17T04:53:58;53.09;52.26;54.06;;
43938;Laerm;71382;47.750;10.226;2024-03-17T04:56:24;53.55;52.61;54.37;;
43938;Laerm;71382;47.750;10.226;2024-03-17T04:58:50;53.44;52.58;57.45;;
43938;Laerm;71382;47.750;10.226;2024-03-17T05:01:15;56.29;55.63;56.88;;
43938;Laerm;71382;47.750;10.226;2024-03-17T05:03:41;56.29;55.72;56.77;;
43938;Laerm;71382;47.750;10.226;2024-03-17T05:06:06;56.27;52.63;58.21;;
43938;Laerm;71382;47.750;10.226;2024-03-17T05:08:32;56.30;55.79;56.77;;
43938;Laerm;71382;47.750;10.226;2024-03-17T05:11:02;56.27;55.60;56.96;;
43938;Laerm;71382;47.750;10.226;2024-03-17T05:13:31;56.18;55.23;56.90;;
43938;Laerm;71382;47.750;10.226;2024-03-17T05:15:57;56.26;53.97;58.01;;
43938;Laerm;71382;47.750;10.226;2024-03-17T05:18:23;56.34;55.74;56.88;;
43938;Laerm;71382;47.750;10.226;2024-03-17T05:21:00;56.64;55.81;61.51;;
43938;Laerm;71382;47.750;10.226;2024-03-17T05:23:27;56.29;55.73;56.84;;
43938;Laerm;71382;47.750;10.226;2024-03-17T05:25:53;56.29;55.70;57.12;;
43938;Laerm;71382;47.750;10.226;2024-03-17T05:28:19;56.25;55.68;56.97;;
43938;Laerm;71382;47.750;10.226;2024-03-17T05:30:45;56.20;55.59;56.76;;
43938;Laerm;71382;47.750;10.226;2024-03-17T05:33:10;56.02;52.46;58.27;;
43938;Laerm;71382;47.750;10.226;2024-03-17T05:35:36;55.99;52.41;58.29;;
43938;Laerm;71382;47.750;10.226;2024-03-17T05:38:02;56.30;55.82;56.89;;
43938;Laerm;71382;47.750;10.226;2024-03-17T05:40:27;56.28;55.63;57.20;;
43938;Laerm;71382;47.750;10.226;2024-03-17T05:42:54;56.31;55.82;56.85;;
43938;Laerm;71382;47.750;10.226;2024-03-17T05:45:20;56.31;55.51;56.81;;
43938;Laerm;71382;47.750;10.226;2024-03-17T05:47:46;56.31;55.67;56.82;;
43938;Laerm;71382;47.750;10.226;2024-03-17T05:50:11;56.30;55.68;56.86;;
43938;Laerm;71382;47.750;10.226;2024-03-17T05:52:38;56.32;55.71;57.59;;
43938;Laerm;71382;47.750;10.226;2024-03-17T05:55:03;56.27;55.64;56.79;;
43938;Laerm;71382;47.750;10.226;2024-03-17T05:57:29;56.33;55.71;57.64;;
43938;Laerm;71382;47.750;10.226;2024-03-17T05:59:54;56.25;55.72;56.86;;
43938;Laerm;71382;47.750;10.226;2024-03-17T06:02:23;56.23;55.61;56.86;;
43938;Laerm;71382;47.750;10.226;2024-03-17T06:04:49;56.64;55.57;67.62;;
43938;Laerm;71382;47.750;10.226;2024-03-17T06:07:15;56.27;53.61;57.39;;
43938;Laerm;71382;47.750;10.226;2024-03-17T06:09:40;56.39;55.77;57.75;;
43938;Laerm;71382;47.750;10.226;2024-03-17T06:12:06;56.35;55.77;57.37;;
43938;Laerm;71382;47.750;10.226;2024-03-17T06:14:32;56.35;55.78;57.29;;
43938;Laerm;71382;47.750;10.226;2024-03-17T06:16:59;56.39;55.68;57.29;;
43938;Laerm;71382;47.750;10.226;2024-03-17T06:19:25;56.35;55.70;57.07;;
43938;Laerm;71382;47.750;10.226;2024-03-17T06:21:50;56.33;55.71;56.82;;
43938;Laerm;71382;47.750;10.226;2024-03-17T06:24:16;56.39;55.82;58.02;;
43938;Laerm;71382;47.750;10.226;2024-03-17T06:26:42;56.37;55.68;57.21;;
43938;Laerm;71382;47.750;10.226;2024-03-17T06:29:08;56.36;55.79;57.11;;
43938;Laerm;71382;47.750;10.226;2024-03-17T06:31:33;56.36;55.86;57.28;;
43938;Laerm;71382;47.750;10.226;2024-03-17T06:33:59;56.33;55.68;56.85;;
43938;Laerm;71382;47.750;10.226;2024-03-17T06:36:24;56.33;55.78;57.17;;
43938;Laerm;71382;47.750;10.226;2024-03-17T06:38:50;56.31;55.68;57.73;;
43938;Laerm;71382;47.750;10.226;2024-03-17T06:41:16;56.22;55.70;57.04;;
43938;Laerm;71382;47.750;10.226;2024-03-17T06:43:42;56.28;55.59;57.90;;
43938;Laerm;71382;47.750;10.226;2024-03-17T06:46:08;56.30;55.72;57.03;;
43938;Laerm;71382;47.750;10.226;2024-03-17T06:48:34;56.33;55.80;56.89;;
43938;Laerm;71382;47.750;10.226;2024-03-17T06:51:00;56.30;55.68;56.83;;
43938;Laerm;71382;47.750;10.226;2024-03-17T06:53:26;56.33;55.76;57.03;;
43938;Laerm;71382;47.750;10.226;2024-03-17T06:55:55;56.32;55.74;56.86;;
43938;Laerm;71382;47.750;10.226;2024-03-17T06:58:24;56.36;55.74;57.56;;
43938;Laerm;71382;47.750;10.226;2024-03-17T07:00:54;56.27;55.67;57.13;;
43938;Laerm;71382;47.750;10.226;2024-03-17T07:03:20;56.22;55.62;57.22;;
43938;Laerm;71382;47.750;10.226;2024-03-17T07:05:52;56.20;55.61;56.73;;
43938;Laerm;71382;47.750;10.226;2024-03-17T07:08:18;56.27;55.58;56.98;;
43938;Laerm;71382;47.750;10.226;2024-03-17T07:10:55;56.25;55.68;56.86;;
43938;Laerm;71382;47.750;10.226;2024-03-17T07:13:21;56.25;55.66;56.77;;
43938;Laerm;71382;47.750;10.226;2024-03-17T07:15:47;56.29;55.69;56.81;;
43938;Laerm;71382;47.750;10.226;2024-03-17T07:18:12;56.28;55.71;56.83;;
43938;Laerm;71382;47.750;10.226;2024-03-17T07:20:38;56.26;55.75;56.80;;
43938;Laerm;71382;47.750;10.226;2024-03-17T07:23:04;56.30;55.73;57.02;;
43938;Laerm;71382;47.750;10.226;2024-03-17T07:25:30;56.18;55.50;56.79;;
43938;Laerm;71382;47.750;10.226;2024-03-17T07:27:56;49.58;30.99;56.64;;
43938;Laerm;71382;47.750;10.226;2024-03-17T07:30:21;39.35;30.65;53.14;;
43938;Laerm;71382;47.750;10.226;2024-03-17T07:32:47;38.01;30.73;47.48;;
43938;Laerm;71382;47.750;10.226;2024-03-17T07:35:12;33.09;30.86;43.35;;
43938;Laerm;71382;47.750;10.226;2024-03-17T07:37:39;35.30;30.55;47.11;;
43938;Laerm;71382;47.750;10.226;2024-03-17T07:40:05;41.18;30.48;52.15;;
43938;Laerm;71382;47.750;10.226;2024-03-17T07:42:32;41.30;30.51;56.61;;
43938;Laerm;71382;47.750;10.226;2024-03-17T07:44:58;60.86;31.93;71.59;;
43938;Laerm;71382;47.750;10.226;2024-03-17T07:47:23;38.56;30.09;53.47;;
43938;Laerm;71382;47.750;10.226;2024-03-17T07:49:49;41.58;30.42;60.49;;
43938;Laerm;71382;47.750;10.226;2024-03-17T07:52:15;37.32;30.63;46.68;;
43938;Laerm;71382;47.750;10.226;2024-03-17T07:54:41;45.27;31.07;58.55;;
43938;Laerm;71382;47.750;10.226;2024-03-17T07:57:06;39.48;31.57;48.41;;
43938;Laerm;71382;47.750;10.226;2024-03-17T07:59:34;34.71;30.26;46.37;;
43938;Laerm;71382;47.750;10.226;2024-03-17T08:02:00;36.92;30.41;48.10;;
43938;Laerm;71382;47.750;10.226;2024-03-17T08:04:25;37.00;30.76;48.92;;
43938;Laerm;71382;47.750;10.226;2024-03-17T08:06:51;35.22;30.67;45.41;;
43938;Laerm;71382;47.750;10.226;2024-03-17T08:09:17;36.24;30.57;46.00;;
43938;Laerm;71382;47.750;10.226;2024-03-17T08:11:43;37.51;30.60;48.19;;
43938;Laerm;71382;47.750;10.226;2024-03-17T08:14:12;41.49;30.93;52.85;;
43938;Laerm;71382;47.750;10.226;2024-03-17T08:16:38;39.19;30.51;51.38;;
43938;Laerm;71382;47.750;10.226;2024-03-17T08:19:04;34.66;30.81;47.63;;
43938;Laerm;71382;47.750;10.226;2024-03-17T08:21:32;40.59;30.44;50.91;;
43938;Laerm;71382;47.750;10.226;2024-03-17T08:23:57;39.37;30.37;52.16;;
43938;Laerm;71382;47.750;10.226;2024-03-17T08:26:23;39.71;30.09;49.02;;
43938;Laerm;71382;47.750;10.226;2024-03-17T08:28:52;37.85;30.61;47.92;;
43938;Laerm;71382;47.750;10.226;2024-03-17T08:31:17;57.01;30.88;70.16;;
43938;Laerm;71382;47.750;10.226;2024-03-17T08:33:43;39.61;30.26;52.70;;
43938;Laerm;71382;47.750;10.226;2024-03-17T08:36:09;38.60;30.18;49.74;;
43938;Laerm;71382;47.750;10.226;2024-03-17T08:38:36;53.10;35.34;55.91;;
43938;Laerm;71382;47.750;10.226;2024-03-17T08:41:02;52.82;51.74;55.45;;
43938;Laerm;71382;47.750;10.226;2024-03-17T08:43:29;52.64;51.39;54.95;;
43938;Laerm;71382;47.750;10.226;2024-03-17T08:45:55;50.65;41.67;53.91;;
43938;Laerm;71382;47.750;10.226;2024-03-17T08:48:21;52.53;42.27;55.94;;
43938;Laerm;71382;47.750;10.226;2024-03-17T08:50:53;54.24;52.49;55.73;;
43938;Laerm;71382;47.750;10.226;2024-03-17T08:53:19;54.84;53.88;56.48;;
43938;Laerm;71382;47.750;10.226;2024-03-17T08:55:45;54.36;53.20;55.90;;
43938;Laerm;71382;47.750;10.226;2024-03-17T08:58:10;53.87;53.27;55.42;;
43938;Laerm;71382;47.750;10.226;2024-03-17T09:00:36;54.87;53.57;56.01;;
43938;Laerm;71382;47.750;10.226;2024-03-17T09:03:02;55.73;52.80;66.48;;
43938;Laerm;71382;47.750;10.226;2024-03-17T09:05:28;53.39;47.50;59.07;;
43938;Laerm;71382;47.750;10.226;2024-03-17T09:07:54;53.51;50.29;61.09;;
43938;Laerm;71382;47.750;10.226;2024-03-17T09:10:20;54.81;53.23;56.11;;
43938;Laerm;71382;47.750;10.226;2024-03-17T09:12:46;54.33;51.41;55.95;;
43938;Laerm;71382;47.750;10.226;2024-03-17T09:15:13;52.61;47.99;54.45;;
43938;Laerm;71382;47.750;10.226;2024-03-17T09:17:38;53.62;52.69;54.99;;
43938;Laerm;71382;47.750;10.226;2024-03-17T09:20:05;54.01;53.08;60.19;;
43938;Laerm;71382;47.750;10.226;2024-03-17T09:22:31;54.20;53.17;58.50;;
43938;Laerm;71382;47.750;10.226;2024-03-17T09:24:57;54.10;47.27;55.92;;
43938;Laerm;71382;47.750;10.226;2024-03-17T09:27:23;55.27;54.54;56.24;;
43938;Laerm;71382;47.750;10.226;2024-03-17T09:29:51;52.62;49.17;56.34;;
43938;Laerm;71382;47.750;10.226;2024-03-17T09:32:16;54.97;50.96;57.38;;
43938;Laerm;71382;47.750;10.226;2024-03-17T09:34:49;56.26;51.93;63.78;;
43938;Laerm;71382;47.750;10.226;2024-03-17T09:37:14;55.22;53.03;60.39;;
43938;Laerm;71382;47.750;10.226;2024-03-17T09:39:41;55.60;54.67;57.85;;
43938;Laerm;71382;47.750;10.226;2024-03-17T09:42:07;55.94;54.77;59.87;;
43938;Laerm;71382;47.750;10.226;2024-03-17T09:44:40;55.69;54.97;57.29;;
43938;Laerm;71382;47.750;10.226;2024-03-17T09:47:06;53.68;50.85;58.23;;
43938;Laerm;71382;47.750;10.226;2024-03-17T09:49:32;53.92;53.28;54.66;;
43938;Laerm;71382;47.750;10.226;2024-03-17T09:51:58;53.96;52.69;55.16;;
43938;Laerm;71382;47.750;10.226;2024-03-17T09:54:24;53.42;52.58;54.57;;
43938;Laerm;71382;47.750;10.226;2024-03-17T09:56:49;53.84;52.49;62.35;;
43938;Laerm;71382;47.750;10.226;2024-03-17T09:59:16;53.25;52.28;55.07;;
43938;Laerm;71382;47.750;10.226;2024-03-17T10:01:42;53.43;52.80;55.44;;
43938;Laerm;71382;47.750;10.226;2024-03-17T10:04:09;53.10;51.09;54.94;;
43938;Laerm;71382;47.750;10.226;2024-03-17T10:06:44;53.02;51.86;54.50;;
43938;Laerm;71382;47.750;10.226;2024-03-17T10:09:10;52.93;52.06;54.68;;
43938;Laerm;71382;47.750;10.226;2024-03-17T10:11:46;52.84;52.19;55.25;;
43938;Laerm;71382;47.750;10.226;2024-03-17T10:14:12;53.53;52.16;55.43;;
43938;Laerm;71382;47.750;10.226;2024-03-17T10:16:40;52.65;46.09;56.01;;
43938;Laerm;71382;47.750;10.226;2024-03-17T10:19:08;44.74;30.24;57.95;;
43938;Laerm;71382;47.750;10.226;2024-03-17T10:21:35;39.55;30.89;52.71;;
43938;Laerm;71382;47.750;10.226;2024-03-17T10:24:08;40.42;31.52;52.64;;
43938;Laerm;71382;47.750;10.226;2024-03-17T10:26:47;41.21;30.41;51.72;;
43938;Laerm;71382;47.750;10.226;2024-03-17T10:31:41;38.00;30.30;49.27;;
43938;Laerm;71382;47.750;10.226;2024-03-17T10:34:09;38.17;30.58;49.57;;
43938;Laerm;71382;47.750;10.226;2024-03-17T10:36:40;40.75;30.68;51.45;;
43938;Laerm;71382;47.750;10.226;2024-03-17T10:39:12;45.46;30.96;53.59;;
43938;Laerm;71382;47.750;10.226;2024-03-17T10:41:44;46.64;42.13;50.91;;
43938;Laerm;71382;47.750;10.226;2024-03-17T10:44:10;49.51;41.74;60.61;;
43938;Laerm;71382;47.750;10.226;2024-03-17T10:46:35;50.10;42.09;56.50;;
43938;Laerm;71382;47.750;10.226;2024-03-17T10:49:01;50.87;44.34;56.30;;
43938;Laerm;71382;47.750;10.226;2024-03-17T10:51:27;53.89;50.43;56.01;;
43938;Laerm;71382;47.750;10.226;2024-03-17T10:53:53;55.06;54.03;56.63;;
43938;Laerm;71382;47.750;10.226;2024-03-17T10:56:21;54.62;53.64;55.47;;
43938;Laerm;71382;47.750;10.226;2024-03-17T10:58:48;54.49;52.45;56.00;;
43938;Laerm;71382;47.750;10.226;2024-03-17T11:01:18;52.80;51.80;54.21;;
43938;Laerm;71382;47.750;10.226;2024-03-17T11:03:45;53.14;46.91;58.82;;
43938;Laerm;71382;47.750;10.226;2024-03-17T11:06:12;50.38;42.16;53.10;;
43938;Laerm;71382;47.750;10.226;2024-03-17T11:08:38;45.75;37.42;52.29;;
43938;Laerm;71382;47.750;10.226;2024-03-17T11:11:07;42.84;37.30;48.16;;
43938;Laerm;71382;47.750;10.226;2024-03-17T11:13:34;44.06;38.70;50.30;;
43938;Laerm;71382;47.750;10.226;2024-03-17T11:16:02;41.21;37.54;49.14;;
43938;Laerm;71382;47.750;10.226;2024-03-17T11:18:33;44.88;40.37;52.33;;
43938;Laerm;71382;47.750;10.226;2024-03-17T11:21:04;49.36;39.18;65.05;;
43938;Laerm;71382;47.750;10.226;2024-03-17T11:23:57;42.04;37.99;48.36;;
43938;Laerm;71382;47.750;10.226;2024-03-17T11:26:33;40.63;35.82;50.74;;
43938;Laerm;71382;47.750;10.226;2024-03-17T11:28:59;42.29;34.73;49.57;;
43938;Laerm;71382;47.750;10.226;2024-03-17T11:33:58;38.90;34.27;45.46;;
43938;Laerm;71382;47.750;10.226;2024-03-17T11:44:14;38.35;33.16;47.05;;
43938;Laerm;71382;47.750;10.226;2024-03-17T11:46:40;44.88;34.89;56.17;;
43938;Laerm;71382;47.750;10.226;2024-03-17T11:49:07;48.82;46.06;51.70;;
43938;Laerm;71382;47.750;10.226;2024-03-17T11:51:33;48.51;37.09;54.58;;
43938;Laerm;71382;47.750;10.226;2024-03-17T11:54:00;54.08;40.01;56.44;;
43938;Laerm;71382;47.750;10.226;2024-03-17T11:56:25;53.82;51.36;64.12;;
43938;Laerm;71382;47.750;10.226;2024-03-17T11:59:04;53.05;51.90;56.26;;
43938;Laerm;71382;47.750;10.226;2024-03-17T12:01:30;52.45;48.79;56.10;;
43938;Laerm;71382;47.750;10.226;2024-03-17T12:03:55;53.65;50.31;55.69;;
43938;Laerm;71382;47.750;10.226;2024-03-17T12:06:23;52.51;50.98;54.62;;
43938;Laerm;71382;47.750;10.226;2024-03-17T12:08:49;53.92;51.54;62.69;;
43938;Laerm;71382;47.750;10.226;2024-03-17T12:11:17;54.81;51.61;56.27;;
43938;Laerm;71382;47.750;10.226;2024-03-17T12:13:43;54.00;51.86;56.38;;
43938;Laerm;71382;47.750;10.226;2024-03-17T12:16:10;53.90;51.90;55.52;;
43938;Laerm;71382;47.750;10.226;2024-03-17T12:18:36;54.15;42.34;56.75;;
43938;Laerm;71382;47.750;10.226;2024-03-17T12:21:15;56.05;55.17;56.77;;
43938;Laerm;71382;47.750;10.226;2024-03-17T12:23:40;55.68;47.28;57.22;;
43938;Laerm;71382;47.750;10.226;2024-03-17T12:26:09;53.85;45.82;57.60;;
43938;Laerm;71382;47.750;10.226;2024-03-17T12:28:40;52.72;43.73;60.51;;
43938;Laerm;71382;47.750;10.226;2024-03-17T12:31:06;54.10;48.95;62.01;;
43938;Laerm;71382;47.750;10.226;2024-03-17T12:33:32;54.21;48.26;57.45;;
43938;Laerm;71382;47.750;10.226;2024-03-17T12:35:58;52.40;46.03;65.12;;
43938;Laerm;71382;47.750;10.226;2024-03-17T12:38:26;50.15;45.63;55.09;;
43938;Laerm;71382;47.750;10.226;2024-03-17T12:40:52;46.89;43.10;53.48;;
43938;Laerm;71382;47.750;10.226;2024-03-17T12:43:18;49.55;43.06;53.26;;
43938;Laerm;71382;47.750;10.226;2024-03-17T12:45:43;50.35;43.08;54.36;;
43938;Laerm;71382;47.750;10.226;2024-03-17T12:48:14;50.98;45.80;55.05;;
43938;Laerm;71382;47.750;10.226;2024-03-17T12:50:46;53.28;48.29;60.65;;
43938;Laerm;71382;47.750;10.226;2024-03-17T12:53:15;50.08;47.53;52.02;;
43938;Laerm;71382;47.750;10.226;2024-03-17T12:55:52;50.62;42.79;53.28;;
43938;Laerm;71382;47.750;10.226;2024-03-17T12:58:36;48.13;39.49;61.61;;
43938;Laerm;71382;47.750;10.226;2024-03-17T13:01:20;48.87;37.53;63.25;;
43938;Laerm;71382;47.750;10.226;2024-03-17T13:03:46;44.08;38.41;55.74;;
43938;Laerm;71382;47.750;10.226;2024-03-17T13:06:20;44.00;33.91;53.90;;
43938;Laerm;71382;47.750;10.226;2024-03-17T13:08:48;45.51;38.63;57.03;;
43938;Laerm;71382;47.750;10.226;2024-03-17T13:11:14;53.90;41.94;57.39;;
43938;Laerm;71382;47.750;10.226;2024-03-17T13:13:40;54.91;53.55;58.95;;
43938;Laerm;71382;47.750;10.226;2024-03-17T13:16:05;54.62;52.99;61.94;;
43938;Laerm;71382;47.750;10.226;2024-03-17T13:18:32;54.53;53.38;56.70;;
43938;Laerm;71382;47.750;10.226;2024-03-17T13:20:58;55.18;52.92;60.43;;
43938;Laerm;71382;47.750;10.226;2024-03-17T13:23:24;55.76;54.98;56.53;;
43938;Laerm;71382;47.750;10.226;2024-03-17T13:25:50;56.40;55.20;59.48;;
43938;Laerm;71382;47.750;10.226;2024-03-17T13:28:16;53.84;42.29;66.60;;
43938;Laerm;71382;47.750;10.226;2024-03-17T13:30:42;54.99;54.03;56.11;;
43938;Laerm;71382;47.750;10.226;2024-03-17T13:33:08;55.69;54.86;57.28;;
43938;Laerm;71382;47.750;10.226;2024-03-17T13:35:37;55.69;54.83;56.57;;
43938;Laerm;71382;47.750;10.226;2024-03-17T13:38:07;56.12;54.95;60.81;;
43938;Laerm;71382;47.750;10.226;2024-03-17T13:40:33;55.94;55.14;58.58;;
43938;Laerm;71382;47.750;10.226;2024-03-17T13:42:59;56.14;53.10;59.42;;